Date,TemperatureHighF,TemperatureAvgF,TemperatureLowF,DewpointHighF,DewpointAvgF,DewpointLowF,HumidityHigh,HumidityAvg,HumidityLow,PressureMaxIn,PressureMinIn,WindSpeedMaxMPH,WindSpeedAvgMPH,GustSpeedMaxMPH,PrecipitationSumIn
2013-9-1,91,84,76,78,76,73,95,77,58,29.84,29.76,7,2,17,0.00
2013-9-2,91,85,79,78,76,74,89,73,58,29.89,29.78,7,3,16,0.00
2013-9-3,91,83,73,79,76,69,96,81,62,29.89,29.79,8,2,22,0.28
2013-9-4,90,80,72,78,75,71,97,84,66,29.97,29.85,5,1,16,0.02
2013-9-5,89,81,74,78,75,72,97,84,62,30.01,29.93,5,1,15,0.62
2013-9-6,91,81,74,76,74,72,97,81,54,30.00,29.89,3,1,11,0.01
2013-9-7,92,81,72,74,72,68,96,75,46,29.95,29.87,5,1,12,0.00
2013-9-8,90,81,72,75,73,70,96,78,57,29.91,29.84,5,1,14,0.00
2013-9-9,91,81,72,74,72,68,96,76,48,29.95,29.86,5,1,16,0.00
2013-9-10,91,81,73,75,72,70,94,76,51,30.01,29.92,8,2,22,0.00
2013-9-11,91,81,73,74,71,68,94,75,46,30.02,29.93,7,2,19,0.00
2013-9-12,90,80,71,74,72,69,93,76,57,29.94,29.82,5,1,15,0.00
2013-9-13,92,82,72,75,72,68,97,75,46,29.84,29.72,5,1,15,0.00
2013-9-14,87,80,72,73,69,67,87,72,53,29.89,29.76,5,1,12,0.00
2013-9-15,90,80,69,74,69,62,89,71,53,29.96,29.87,5,2,16,0.00
2013-9-16,92,80,73,76,73,70,97,80,53,29.98,29.90,9,2,27,0.01
2013-9-17,91,79,72,77,73,70,95,83,56,29.98,29.88,5,1,27,0.27
2013-9-18,86,79,74,75,73,72,95,83,68,29.97,29.91,5,2,16,0.00
2013-9-19,87,80,75,75,74,72,92,81,67,29.96,29.88,7,3,21,0.00
2013-9-20,88,80,75,79,75,72,94,84,68,29.91,29.74,7,2,21,0.75
2013-9-21,82,78,72,77,74,70,96,90,80,29.74,29.63,6,2,23,0.60
2013-9-22,81,73,69,70,67,64,96,83,66,29.71,29.63,6,3,17,0.04
2013-9-23,90,78,67,77,70,62,95,78,63,29.77,29.70,6,2,16,0.08
2013-9-24,85,78,73,77,75,72,97,90,71,29.78,29.67,6,2,17,0.42
2013-9-25,90,78,70,74,72,69,98,83,52,29.74,29.66,4,1,13,0.00
2013-9-26,90,78,67,72,66,58,97,72,36,29.84,29.71,4,1,13,0.00
2013-9-27,85,76,70,70,68,64,93,77,49,29.93,29.83,4,2,14,0.00
2013-9-28,86,74,65,68,66,62,93,76,47,29.98,29.91,6,2,17,0.00
2013-9-29,87,75,67,67,66,64,94,75,50,29.95,29.85,5,2,12,0.00
2013-9-30,82,75,70,71,69,65,96,83,66,29.89,29.83,3,1,12,0.05